createdAt,value
2017-12-05T00:01:28.821Z,10.27
2017-12-05T00:03:07.341Z,10.41
2017-12-05T00:04:45.713Z,10.50
2017-12-05T00:06:25.718Z,10.47
2017-12-05T00:08:03.157Z,10.58
2017-12-05T00:09:39.676Z,10.41
2017-12-05T00:11:16.566Z,10.29
2017-12-05T00:12:55.336Z,10.20
2017-12-05T00:14:40.844Z,10.10
2017-12-05T00:16:18.093Z,10.09
2017-12-05T00:17:55.300Z,10.09
2017-12-05T00:19:31.839Z,9.94
2017-12-05T00:21:11.062Z,9.88
2017-12-05T00:22:51.591Z,9.83
2017-12-05T00:24:34.372Z,9.75
2017-12-05T00:26:14.068Z,9.09
2017-12-05T00:27:53.584Z,8.68
2017-12-05T00:29:33.000Z,8.82
2017-12-05T00:31:12.674Z,9.24
2017-12-05T00:32:52.977Z,9.45
2017-12-05T00:34:29.465Z,9.63
2017-12-05T00:36:07.477Z,9.85
2017-12-05T00:37:45.681Z,9.91
2017-12-05T00:42:57.299Z,9.71
2017-12-05T00:44:37.584Z,9.76
2017-12-05T00:46:17.590Z,9.76
2017-12-05T00:47:56.576Z,9.82
2017-12-05T00:49:36.018Z,9.82
2017-12-05T00:51:15.574Z,9.87
2017-12-05T00:52:54.678Z,9.91
2017-12-05T00:54:34.470Z,10.06
2017-12-05T00:56:14.270Z,9.83
2017-12-05T00:57:53.083Z,9.75
2017-12-05T00:59:32.470Z,9.66
2017-12-05T01:01:12.078Z,9.21
2017-12-05T01:02:51.369Z,9.45
2017-12-05T01:04:30.899Z,9.55
2017-12-05T01:06:09.188Z,9.66
2017-12-05T01:07:49.296Z,9.75
2017-12-05T01:09:29.888Z,9.79
2017-12-05T01:11:08.272Z,9.79
2017-12-05T01:12:46.562Z,9.88
2017-12-05T01:14:24.975Z,9.83
2017-12-05T01:16:04.373Z,9.73
2017-12-05T01:17:43.367Z,9.31
2017-12-05T01:19:23.862Z,9.16
2017-12-05T01:21:04.551Z,9.32
2017-12-05T01:22:45.471Z,9.04
2017-12-05T01:24:24.345Z,9.34
2017-12-05T01:26:03.348Z,9.40
2017-12-05T01:27:42.138Z,9.19
2017-12-05T01:29:21.941Z,9.32
2017-12-05T01:31:01.239Z,9.58
2017-12-05T01:32:40.934Z,9.23
2017-12-05T01:34:20.141Z,9.16
2017-12-05T01:35:59.055Z,9.42
2017-12-05T01:37:37.433Z,9.51
2017-12-05T01:39:15.988Z,9.01
2017-12-05T01:40:55.422Z,8.87
2017-12-05T01:44:16.740Z,9.09
2017-12-05T01:45:56.734Z,9.37
2017-12-05T01:47:36.536Z,9.51
2017-12-05T01:49:17.218Z,9.53
2017-12-05T01:50:56.355Z,9.55
2017-12-05T01:52:35.437Z,9.87
2017-12-05T01:56:26.896Z,9.83
2017-12-05T01:58:06.923Z,9.20
2017-12-05T01:59:55.787Z,9.58
2017-12-05T02:01:36.389Z,9.47
2017-12-05T02:03:17.823Z,9.38
2017-12-05T02:05:01.003Z,9.66
2017-12-05T02:06:43.208Z,9.60
2017-12-05T02:08:25.512Z,9.38
2017-12-05T02:10:07.631Z,9.23
2017-12-05T02:11:53.026Z,9.40
2017-12-05T02:13:32.414Z,9.85
2017-12-05T02:15:15.322Z,9.86
2017-12-05T02:16:55.623Z,10.01
2017-12-05T02:18:39.529Z,10.09
2017-12-05T02:20:23.424Z,10.28
2017-12-05T02:22:02.918Z,10.48
2017-12-05T02:23:44.225Z,10.34
2017-12-05T02:25:24.452Z,10.49
2017-12-05T02:27:04.417Z,10.34
2017-12-05T02:28:45.910Z,10.01
2017-12-05T02:30:26.903Z,9.88
2017-12-05T02:32:12.611Z,9.78
2017-12-05T02:33:59.999Z,9.99
2017-12-05T02:35:42.593Z,9.75
2017-12-05T02:37:22.989Z,9.51
2017-12-05T02:39:03.491Z,9.46
2017-12-05T02:40:54.693Z,9.26
2017-12-05T02:42:38.547Z,9.77
2017-12-05T02:44:18.986Z,10.11
2017-12-05T02:45:59.280Z,10.08
2017-12-05T02:47:41.394Z,9.89
2017-12-05T02:49:23.697Z,9.36
2017-12-05T02:51:04.192Z,9.31
2017-12-05T02:52:45.896Z,9.63
2017-12-05T02:54:26.799Z,9.92
2017-12-05T02:56:10.121Z,10.12
2017-12-05T02:57:49.395Z,10.11
2017-12-05T02:59:29.104Z,9.70
2017-12-05T03:01:12.495Z,9.56
2017-12-05T03:02:51.598Z,9.80
2017-12-05T03:04:32.793Z,9.82
2017-12-05T03:06:12.122Z,10.10
2017-12-05T03:07:53.493Z,9.83
2017-12-05T03:09:33.992Z,9.78
2017-12-05T03:11:13.799Z,9.74
2017-12-05T03:12:55.199Z,10.04
2017-12-05T03:14:34.201Z,10.10
2017-12-05T03:16:17.797Z,10.27
2017-12-05T03:17:57.708Z,10.27
2017-12-05T03:19:37.989Z,10.22
2017-12-05T03:21:19.991Z,10.19
2017-12-05T03:22:59.626Z,10.04
2017-12-05T03:24:39.195Z,10.13
2017-12-05T03:26:19.394Z,10.15
2017-12-05T03:28:03.616Z,9.93
2017-12-05T03:29:44.893Z,9.83
2017-12-05T03:31:23.893Z,10.05
2017-12-05T03:33:03.012Z,9.94
2017-12-05T03:34:43.791Z,9.84
2017-12-05T03:36:23.804Z,10.03
2017-12-05T03:38:05.323Z,10.27
2017-12-05T03:39:45.319Z,10.40
2017-12-05T03:41:25.129Z,10.39
2017-12-05T03:43:05.338Z,10.34
2017-12-05T03:44:45.138Z,10.26
2017-12-05T03:46:28.471Z,9.78
2017-12-05T03:49:40.353Z,9.85
2017-12-05T03:51:20.351Z,9.82
2017-12-05T03:52:58.859Z,9.50
2017-12-05T03:54:38.471Z,9.52
2017-12-05T03:56:17.476Z,9.79
2017-12-05T03:57:56.685Z,9.76
2017-12-05T03:59:35.823Z,10.08
2017-12-05T04:01:16.084Z,10.07
2017-12-05T04:02:55.681Z,9.80
2017-12-05T04:04:34.399Z,10.12
2017-12-05T04:06:13.086Z,10.09
2017-12-05T04:07:52.209Z,9.73
2017-12-05T04:09:31.579Z,9.75
2017-12-05T04:11:10.177Z,10.03
2017-12-05T04:12:48.968Z,9.81
2017-12-05T04:14:27.868Z,9.65
2017-12-05T04:17:41.654Z,10.01
2017-12-05T04:19:20.356Z,10.19
2017-12-05T04:20:59.255Z,9.85
2017-12-05T04:22:38.953Z,10.01
2017-12-05T04:26:01.553Z,9.98
2017-12-05T04:27:41.353Z,10.16
2017-12-05T04:29:19.760Z,9.41
2017-12-05T04:30:58.857Z,9.24
2017-12-05T04:32:38.360Z,9.52
2017-12-05T04:34:18.259Z,8.88
2017-12-05T04:35:56.961Z,8.43
2017-12-05T04:37:35.664Z,8.40
2017-12-05T04:39:14.164Z,8.74
2017-12-05T04:40:54.271Z,8.94
2017-12-05T04:42:33.169Z,9.13
2017-12-05T04:44:13.675Z,9.26
2017-12-05T04:45:52.780Z,9.50
2017-12-05T04:49:16.584Z,9.45
2017-12-05T04:50:57.089Z,9.68
2017-12-05T04:52:38.098Z,9.44
2017-12-05T04:54:17.491Z,9.36
2017-12-05T04:55:56.301Z,9.23
2017-12-05T04:57:40.697Z,9.01
2017-12-05T04:59:19.693Z,8.73
2017-12-05T05:00:58.909Z,8.85
2017-12-05T05:02:37.699Z,8.84
2017-12-05T05:04:18.401Z,8.83
2017-12-05T05:05:59.052Z,9.09
2017-12-05T05:07:38.458Z,9.08
2017-12-05T05:09:17.711Z,9.26
2017-12-05T05:10:56.110Z,8.88
2017-12-05T05:12:37.803Z,8.52
2017-12-05T05:15:55.904Z,9.19
2017-12-05T05:17:35.206Z,9.26
2017-12-05T05:19:14.203Z,9.19
2017-12-05T05:20:53.999Z,9.32
2017-12-05T05:22:33.899Z,8.88
2017-12-05T05:24:19.098Z,9.16
2017-12-05T05:25:59.003Z,9.36
2017-12-05T05:27:40.311Z,9.42
2017-12-05T05:29:19.897Z,9.51
2017-12-05T05:32:40.641Z,9.45
2017-12-05T05:34:17.627Z,9.54
2017-12-05T05:35:56.496Z,9.55
2017-12-05T05:37:35.801Z,9.62
2017-12-05T05:39:17.994Z,9.63
2017-12-05T05:40:58.724Z,9.67
2017-12-05T05:42:37.806Z,9.64
2017-12-05T05:44:17.292Z,9.68
2017-12-05T05:47:41.495Z,9.12
2017-12-05T05:49:21.598Z,9.04
2017-12-05T05:50:58.876Z,9.31
2017-12-05T05:52:36.798Z,9.09
2017-12-05T05:54:13.629Z,8.99
2017-12-05T05:55:51.346Z,9.18
2017-12-05T05:57:32.686Z,9.54
2017-12-05T05:59:13.596Z,9.73
2017-12-05T06:00:52.474Z,9.67
2017-12-05T06:02:32.674Z,9.48
2017-12-05T06:04:15.288Z,9.56
2017-12-05T06:05:53.877Z,9.53
2017-12-05T06:07:33.279Z,9.29
2017-12-05T06:09:12.081Z,9.34
2017-12-05T06:10:51.183Z,9.13
2017-12-05T06:12:29.915Z,9.12
2017-12-05T06:14:08.678Z,9.32
2017-12-05T06:15:47.772Z,9.50
2017-12-05T06:17:29.374Z,9.58
2017-12-05T06:19:08.172Z,9.40
2017-12-05T06:20:47.771Z,9.12
2017-12-05T06:22:27.963Z,8.69
2017-12-05T06:24:12.361Z,8.63
2017-12-05T06:25:51.863Z,8.89
2017-12-05T06:27:30.584Z,9.20
2017-12-05T06:29:10.271Z,9.28
2017-12-05T06:30:50.755Z,9.54
2017-12-05T06:32:29.558Z,9.52
2017-12-05T06:34:08.469Z,9.27
2017-12-05T06:35:47.060Z,9.20
2017-12-05T06:37:27.339Z,9.08
2017-12-05T06:39:07.161Z,9.19
2017-12-05T06:40:47.154Z,9.33
2017-12-05T06:42:26.852Z,9.16
2017-12-05T06:44:06.370Z,8.86
2017-12-05T06:45:45.964Z,8.97
2017-12-05T06:47:24.965Z,8.84
2017-12-05T06:50:50.377Z,9.30
2017-12-05T06:52:30.583Z,9.35
2017-12-05T06:54:09.676Z,9.52
2017-12-05T06:55:51.279Z,9.50
2017-12-05T06:57:30.478Z,9.54
2017-12-05T06:59:09.683Z,9.20
2017-12-05T07:00:49.678Z,9.42
2017-12-05T07:02:29.885Z,9.18
2017-12-05T07:04:09.191Z,9.37
2017-12-05T07:05:49.478Z,9.74
2017-12-05T07:07:28.792Z,9.83
2017-12-05T07:09:08.384Z,9.96
2017-12-05T07:10:47.791Z,9.90
2017-12-05T07:12:26.582Z,9.60
2017-12-05T07:14:06.186Z,9.28
2017-12-05T07:15:47.983Z,9.37
2017-12-05T07:17:27.689Z,9.18
2017-12-05T07:19:06.500Z,9.01
2017-12-05T07:20:46.411Z,8.85
2017-12-05T07:22:26.119Z,8.54
2017-12-05T07:24:05.106Z,8.74
2017-12-05T07:25:45.111Z,9.19
2017-12-05T07:27:24.013Z,9.45
2017-12-05T07:29:04.417Z,9.43
2017-12-05T07:30:44.021Z,9.75
2017-12-05T07:32:29.420Z,9.93
2017-12-05T07:34:08.236Z,10.18
2017-12-05T07:35:48.122Z,10.17
2017-12-05T07:37:28.228Z,10.02
2017-12-05T07:39:07.134Z,10.02
2017-12-05T07:40:48.138Z,9.67
2017-12-05T07:44:26.768Z,9.83
2017-12-05T07:46:06.448Z,9.84
2017-12-05T07:47:45.435Z,9.56
2017-12-05T07:49:25.239Z,9.29
2017-12-05T07:51:04.544Z,9.54
2017-12-05T07:52:43.633Z,9.76
2017-12-05T07:54:22.632Z,9.91
2017-12-05T07:56:02.330Z,9.97
2017-12-05T07:57:42.142Z,9.90
2017-12-05T07:59:21.712Z,9.65
2017-12-05T08:01:01.109Z,9.30
2017-12-05T08:02:40.614Z,8.92
2017-12-05T08:04:20.026Z,9.01
2017-12-05T08:05:59.318Z,9.35
2017-12-05T08:07:39.822Z,9.44
2017-12-05T08:09:19.605Z,9.63
2017-12-05T08:10:59.311Z,9.37
2017-12-05T08:12:39.605Z,9.60
2017-12-05T08:14:18.518Z,9.85
2017-12-05T08:15:59.623Z,10.06
2017-12-05T08:17:39.305Z,9.97
2017-12-05T08:19:18.601Z,9.87
2017-12-05T08:20:57.799Z,9.76
2017-12-05T08:22:38.102Z,9.59
2017-12-05T08:24:20.198Z,9.61
2017-12-05T08:25:59.392Z,9.18
2017-12-05T08:27:38.654Z,9.22
2017-12-05T08:29:23.446Z,9.38
2017-12-05T08:31:03.499Z,9.41
2017-12-05T08:32:42.937Z,9.46
2017-12-05T08:34:23.017Z,9.35
2017-12-05T08:36:01.809Z,9.03
2017-12-05T08:37:42.408Z,9.01
2017-12-05T08:39:22.296Z,8.98
2017-12-05T08:41:01.604Z,9.16
2017-12-05T08:42:43.206Z,9.46
2017-12-05T08:44:23.499Z,9.66
2017-12-05T08:46:03.114Z,9.61
2017-12-05T08:47:42.494Z,9.52
2017-12-05T08:49:22.992Z,9.61
2017-12-05T08:51:03.219Z,9.73
2017-12-05T08:52:42.310Z,9.55
2017-12-05T08:54:21.504Z,9.40
2017-12-05T08:56:01.119Z,9.59
2017-12-05T08:57:40.400Z,9.60
2017-12-05T08:59:20.301Z,9.51
2017-12-05T09:01:00.423Z,9.88
2017-12-05T09:02:40.646Z,10.04
2017-12-05T09:04:19.857Z,10.11
2017-12-05T09:06:00.038Z,10.13
2017-12-05T09:07:39.541Z,9.95
2017-12-05T09:09:19.451Z,10.02
2017-12-05T09:10:59.202Z,10.04
2017-12-05T09:12:38.363Z,9.91
2017-12-05T09:14:17.565Z,9.92
2017-12-05T09:15:57.474Z,9.52
2017-12-05T09:17:38.084Z,9.43
2017-12-05T09:19:17.470Z,9.43
2017-12-05T09:20:57.372Z,9.82
2017-12-05T09:22:36.973Z,9.95
2017-12-05T09:26:04.869Z,9.81
2017-12-05T09:27:44.372Z,9.76
2017-12-05T09:29:23.899Z,9.92
2017-12-05T09:31:08.186Z,10.01
2017-12-05T09:32:47.288Z,9.97
2017-12-05T09:34:26.779Z,10.24
2017-12-05T09:36:05.968Z,10.20
2017-12-05T09:37:45.375Z,10.40
2017-12-05T09:39:25.173Z,10.18
2017-12-05T09:41:05.886Z,10.22
2017-12-05T09:42:45.990Z,9.99
2017-12-05T09:44:26.169Z,10.02
2017-12-05T09:48:53.563Z,9.83
2017-12-05T09:50:32.691Z,9.79
2017-12-05T09:52:13.169Z,9.50
2017-12-05T09:53:52.889Z,9.29
2017-12-05T09:55:32.657Z,9.59
2017-12-05T09:57:12.482Z,9.68
2017-12-05T09:58:52.558Z,9.71
2017-12-05T10:00:32.464Z,9.70
2017-12-05T10:02:11.865Z,9.59
2017-12-05T10:05:27.556Z,9.74
2017-12-05T10:07:10.280Z,9.86
2017-12-05T10:08:49.861Z,9.80
2017-12-05T10:10:29.854Z,9.56
2017-12-05T10:12:11.053Z,9.79
2017-12-05T10:13:50.153Z,9.87
2017-12-05T10:15:36.768Z,9.83
2017-12-05T10:17:18.624Z,9.52
2017-12-05T10:18:57.223Z,9.67
2017-12-05T10:20:36.025Z,9.73
2017-12-05T10:22:15.650Z,9.72
2017-12-05T10:23:54.862Z,9.76
2017-12-05T10:25:34.846Z,10.02
2017-12-05T10:27:13.652Z,10.21
2017-12-05T10:28:54.531Z,10.26
2017-12-05T10:30:33.973Z,10.36
2017-12-05T10:32:16.234Z,10.23
2017-12-05T10:33:59.262Z,9.98
2017-12-05T10:35:39.769Z,10.20
2017-12-05T10:37:20.141Z,10.56
2017-12-05T10:38:59.242Z,10.69
2017-12-05T10:40:39.644Z,10.90
2017-12-05T10:42:20.061Z,10.86
2017-12-05T10:43:59.464Z,10.88
2017-12-05T10:47:23.728Z,10.51
2017-12-05T10:49:03.188Z,10.32
2017-12-05T10:50:43.987Z,10.12
2017-12-05T10:52:23.888Z,9.84
2017-12-05T10:54:03.107Z,9.89
2017-12-05T10:55:42.497Z,10.01
2017-12-05T10:57:23.591Z,10.08
2017-12-05T10:59:03.015Z,10.03
2017-12-05T11:00:45.897Z,10.08
2017-12-05T11:02:26.099Z,10.11
2017-12-05T11:04:05.534Z,9.80
2017-12-05T11:05:45.322Z,9.62
2017-12-05T11:07:24.820Z,9.61
2017-12-05T11:09:04.211Z,9.39
2017-12-05T11:10:44.027Z,9.37
2017-12-05T11:12:24.234Z,9.57
2017-12-05T11:14:04.613Z,9.76
2017-12-05T11:15:44.125Z,10.25
2017-12-05T11:17:23.102Z,10.34
2017-12-05T11:19:02.408Z,10.51
2017-12-05T11:20:44.590Z,10.50
2017-12-05T11:22:23.797Z,10.40
2017-12-05T11:24:02.987Z,10.05
2017-12-05T11:27:31.393Z,10.46
2017-12-05T11:33:46.992Z,10.71
2017-12-05T11:35:28.088Z,10.79
2017-12-05T11:37:07.099Z,10.72
2017-12-05T11:38:47.381Z,10.64
2017-12-05T11:40:34.980Z,10.50
2017-12-05T11:42:15.202Z,10.59
2017-12-05T11:43:58.188Z,10.67
2017-12-05T11:45:41.996Z,10.68
2017-12-05T11:47:21.412Z,10.72
2017-12-05T11:49:00.692Z,11.02
2017-12-05T11:50:42.980Z,11.04
2017-12-05T11:52:23.194Z,11.18
2017-12-05T11:54:03.395Z,10.94
2017-12-05T11:55:43.804Z,10.59
2017-12-05T11:57:23.141Z,10.73
2017-12-05T11:59:01.917Z,10.69
2017-12-05T12:00:41.826Z,10.43
2017-12-05T12:02:21.743Z,10.50
2017-12-05T12:04:08.946Z,10.65
2017-12-05T12:05:50.264Z,10.31
2017-12-05T12:07:29.854Z,10.35
2017-12-05T12:09:09.566Z,10.76
2017-12-05T12:10:48.953Z,10.79
2017-12-05T12:12:28.970Z,10.91
2017-12-05T12:14:08.268Z,10.77
2017-12-05T12:15:53.872Z,10.73
2017-12-05T12:17:37.557Z,10.38
2017-12-05T12:21:03.278Z,9.91
2017-12-05T12:22:47.260Z,10.05
2017-12-05T12:24:27.779Z,10.34
2017-12-05T12:26:07.466Z,10.58
2017-12-05T12:27:46.578Z,10.27
2017-12-05T12:29:25.454Z,10.29
2017-12-05T12:31:05.868Z,10.45
2017-12-05T12:32:46.060Z,10.70
2017-12-05T12:34:25.156Z,10.76
2017-12-05T12:36:04.448Z,10.88
2017-12-05T12:37:43.952Z,10.92
2017-12-05T12:39:23.155Z,10.82
2017-12-05T12:41:02.650Z,10.81
2017-12-05T12:42:44.245Z,10.78
2017-12-05T12:44:25.138Z,10.69
2017-12-05T12:46:04.565Z,10.59
2017-12-05T12:47:43.849Z,10.39
2017-12-05T12:49:22.866Z,10.52
2017-12-05T12:51:02.063Z,10.30
2017-12-05T12:52:43.651Z,10.19
2017-12-05T12:54:23.067Z,10.39
2017-12-05T12:56:03.750Z,10.43
2017-12-05T12:57:44.753Z,10.33
2017-12-05T12:59:24.948Z,10.48
2017-12-05T13:01:04.447Z,10.46
2017-12-05T13:03:00.659Z,10.59
2017-12-05T13:04:40.950Z,10.61
2017-12-05T13:06:20.361Z,10.52
2017-12-05T13:08:01.974Z,10.43
2017-12-05T13:09:41.053Z,10.66
2017-12-05T13:11:21.936Z,10.36
2017-12-05T13:13:03.540Z,10.25
2017-12-05T13:14:43.543Z,10.59
2017-12-05T13:16:23.342Z,10.84
2017-12-05T13:18:03.719Z,10.70
2017-12-05T13:19:43.055Z,10.42
2017-12-05T13:21:23.247Z,10.50
2017-12-05T13:23:06.144Z,10.61
2017-12-05T13:24:45.432Z,10.74
2017-12-05T13:26:30.151Z,10.88
2017-12-05T13:28:09.962Z,10.69
2017-12-05T13:29:50.933Z,10.41
2017-12-05T13:31:31.056Z,10.23
2017-12-05T13:33:10.532Z,10.19
2017-12-05T13:34:51.745Z,10.50
2017-12-05T13:36:33.445Z,10.53
2017-12-05T13:38:13.368Z,10.55
2017-12-05T13:39:53.294Z,10.84
2017-12-05T13:41:34.065Z,10.98
2017-12-05T13:43:19.769Z,10.88
2017-12-05T13:45:01.673Z,10.25
2017-12-05T13:46:48.973Z,10.30
2017-12-05T13:48:30.885Z,9.96
2017-12-05T13:50:20.177Z,10.16
2017-12-05T13:52:08.886Z,10.40
2017-12-05T13:53:49.504Z,10.39
2017-12-05T13:55:30.271Z,10.37
2017-12-05T13:57:09.772Z,10.55
2017-12-05T13:58:50.184Z,10.77
2017-12-05T14:00:29.974Z,10.75
2017-12-05T14:02:11.886Z,10.90
2017-12-05T14:03:52.598Z,10.60
2017-12-05T14:05:31.591Z,10.18
2017-12-05T14:07:16.738Z,10.25
2017-12-05T14:08:56.089Z,10.61
2017-12-05T14:10:35.919Z,10.77
2017-12-05T14:12:17.206Z,10.70
2017-12-05T14:13:59.389Z,10.60
2017-12-05T14:15:44.912Z,10.66
2017-12-05T14:17:25.309Z,10.66
2017-12-05T14:19:04.002Z,10.12
2017-12-05T14:20:43.598Z,9.99
2017-12-05T14:22:24.394Z,10.32
2017-12-05T14:24:07.293Z,10.17
2017-12-05T14:25:55.691Z,9.96
2017-12-05T14:27:36.310Z,10.16
2017-12-05T14:29:15.603Z,10.31
2017-12-05T14:30:55.141Z,10.57
2017-12-05T14:32:35.110Z,10.69
2017-12-05T14:34:15.020Z,10.87
2017-12-05T14:35:54.199Z,11.22
2017-12-05T14:37:36.202Z,11.19
2017-12-05T14:39:22.041Z,10.77
2017-12-05T14:41:01.213Z,10.90
2017-12-05T14:42:42.703Z,10.73
2017-12-05T14:44:21.918Z,10.68
2017-12-05T14:46:02.221Z,10.76
2017-12-05T14:47:44.592Z,11.01
2017-12-05T14:49:26.303Z,11.04
2017-12-05T14:51:13.896Z,10.75
2017-12-05T14:52:53.389Z,10.31
2017-12-05T14:54:33.485Z,10.39
2017-12-05T14:56:14.798Z,10.64
2017-12-05T14:57:54.282Z,10.34
2017-12-05T14:59:35.183Z,10.08
2017-12-05T15:01:14.687Z,9.99
2017-12-05T15:02:54.337Z,10.38
2017-12-05T15:04:35.392Z,10.77
2017-12-05T15:06:14.211Z,11.10
2017-12-05T15:07:53.482Z,11.04
2017-12-05T15:09:37.342Z,11.25
2017-12-05T15:11:19.091Z,11.20
2017-12-05T15:12:58.190Z,10.82
2017-12-05T15:14:43.609Z,10.88
2017-12-05T15:16:32.515Z,10.98
2017-12-05T15:18:11.808Z,10.91
2017-12-05T15:19:51.606Z,10.70
2017-12-05T15:21:33.009Z,10.93
2017-12-05T15:23:14.424Z,10.98
2017-12-05T15:24:54.428Z,11.09
2017-12-05T15:26:33.820Z,10.80
2017-12-05T15:28:13.111Z,10.89
2017-12-05T15:29:53.033Z,11.05
2017-12-05T15:31:33.776Z,10.60
2017-12-05T15:33:14.248Z,10.62
2017-12-05T15:34:58.548Z,10.48
2017-12-05T15:36:42.668Z,10.48
2017-12-05T15:40:21.144Z,10.88
2017-12-05T15:42:01.079Z,10.52
2017-12-05T15:43:40.988Z,10.53
2017-12-05T15:45:20.339Z,10.83
2017-12-05T15:47:06.068Z,10.97
2017-12-05T15:48:53.378Z,10.91
2017-12-05T15:50:34.846Z,10.90
2017-12-05T15:52:14.628Z,10.64
2017-12-05T15:53:56.945Z,10.27
2017-12-05T15:55:37.389Z,10.18
2017-12-05T15:57:17.544Z,10.57
2017-12-05T15:58:58.654Z,10.81
2017-12-05T16:00:40.431Z,10.56
2017-12-05T16:02:19.838Z,10.48
2017-12-05T16:04:02.458Z,10.34
2017-12-05T16:05:46.828Z,10.30
2017-12-05T16:07:28.342Z,10.50
2017-12-05T16:09:06.923Z,10.44
2017-12-05T16:10:48.040Z,10.72
2017-12-05T16:12:32.834Z,10.95
2017-12-05T16:14:14.936Z,11.10
2017-12-05T16:15:55.639Z,10.62
2017-12-05T16:17:37.032Z,10.27
2017-12-05T16:19:15.850Z,10.23
2017-12-05T16:20:53.126Z,10.50
2017-12-05T16:22:30.362Z,10.41
2017-12-05T16:24:12.056Z,10.02
2017-12-05T16:25:54.700Z,9.76
2017-12-05T16:27:31.910Z,10.03
2017-12-05T16:29:11.379Z,10.38
2017-12-05T16:30:52.779Z,10.10
2017-12-05T16:32:32.773Z,9.91
2017-12-05T16:36:23.191Z,10.18
2017-12-05T16:38:00.324Z,10.22
2017-12-05T16:39:41.091Z,10.36
2017-12-05T16:41:20.197Z,10.31
2017-12-05T16:44:48.297Z,10.68
2017-12-05T16:46:40.175Z,10.78
2017-12-05T16:48:21.296Z,10.94
2017-12-05T16:50:02.707Z,10.99
2017-12-05T16:51:50.694Z,10.66
2017-12-05T16:53:29.394Z,10.46
2017-12-05T16:55:08.312Z,10.31
2017-12-05T16:56:47.806Z,10.66
2017-12-05T16:58:27.909Z,10.76
2017-12-05T17:00:07.897Z,10.88
2017-12-05T17:01:46.011Z,10.57
2017-12-05T17:03:24.060Z,10.70
2017-12-05T17:05:01.255Z,10.63
2017-12-05T17:06:42.296Z,10.48
2017-12-05T17:08:33.782Z,10.77
2017-12-05T17:10:15.886Z,10.69
2017-12-05T17:11:55.584Z,10.71
2017-12-05T17:13:39.984Z,10.85
2017-12-05T17:15:21.716Z,10.80
2017-12-05T17:17:04.270Z,10.64
2017-12-05T17:18:41.416Z,10.88
2017-12-05T17:20:24.873Z,10.91
2017-12-05T17:22:09.180Z,11.12
2017-12-05T17:23:48.355Z,11.38
2017-12-05T17:25:26.953Z,11.39
2017-12-05T17:27:05.138Z,11.14
2017-12-05T17:28:45.287Z,11.09
2017-12-05T17:30:26.420Z,11.35
2017-12-05T17:32:07.869Z,10.85
2017-12-05T17:33:52.393Z,10.64
2017-12-05T17:35:33.232Z,10.66
2017-12-05T17:37:12.072Z,10.87
2017-12-05T17:38:54.291Z,10.90
2017-12-05T17:40:40.258Z,10.60
2017-12-05T17:44:07.755Z,10.94
2017-12-05T17:45:47.949Z,11.09
2017-12-05T17:47:29.350Z,11.25
2017-12-05T17:49:08.557Z,10.84
2017-12-05T17:50:49.447Z,10.57
2017-12-05T17:52:31.963Z,10.97
2017-12-05T17:54:11.052Z,11.17
2017-12-05T17:55:50.455Z,11.27
2017-12-05T17:57:30.053Z,11.42
2017-12-05T17:59:10.150Z,11.37
2017-12-05T18:00:50.843Z,11.15
2017-12-05T18:02:39.445Z,11.10
2017-12-05T18:04:19.443Z,11.16
2017-12-05T18:05:59.649Z,11.02
2017-12-05T18:07:47.853Z,10.84
2017-12-05T18:09:28.450Z,10.73
2017-12-05T18:11:09.650Z,10.52
2017-12-05T18:12:49.553Z,10.64
2017-12-05T18:14:31.766Z,10.55
2017-12-05T18:16:22.468Z,10.30
2017-12-05T18:18:02.857Z,10.41
2017-12-05T18:19:43.456Z,10.17
2017-12-05T18:21:23.296Z,10.05
2017-12-05T18:24:55.562Z,10.26
2017-12-05T18:26:42.275Z,10.00
2017-12-05T18:28:24.159Z,10.32
2017-12-05T18:30:06.362Z,10.73
2017-12-05T18:31:48.971Z,10.48
2017-12-05T18:33:31.157Z,10.21
2017-12-05T18:35:10.558Z,10.39
2017-12-05T18:36:58.748Z,10.43
2017-12-05T18:38:41.300Z,10.19
2017-12-05T18:40:28.475Z,10.25
2017-12-05T18:42:11.373Z,10.51
2017-12-05T18:43:50.572Z,10.66
2017-12-05T18:45:32.769Z,10.85
2017-12-05T18:47:13.276Z,10.97
2017-12-05T18:48:53.279Z,10.98
2017-12-05T18:50:34.680Z,10.74
2017-12-05T18:52:17.021Z,10.66
2017-12-05T18:54:00.588Z,10.87
2017-12-05T18:55:41.810Z,10.73
2017-12-05T18:57:21.298Z,10.46
2017-12-05T18:59:03.895Z,10.48
2017-12-05T19:00:48.506Z,10.69
2017-12-05T19:02:27.996Z,10.66
2017-12-05T19:04:14.199Z,10.24
2017-12-05T19:05:53.610Z,10.29
2017-12-05T19:07:36.301Z,10.56
2017-12-05T19:09:16.207Z,10.29
2017-12-05T19:10:55.917Z,9.79
2017-12-05T19:12:36.214Z,9.75
2017-12-05T19:14:23.314Z,9.75
2017-12-05T19:17:59.503Z,10.01
2017-12-05T19:19:41.202Z,10.38
2017-12-05T19:23:11.794Z,10.34
2017-12-05T19:24:52.601Z,10.32
2017-12-05T19:26:34.117Z,10.32
2017-12-05T19:28:20.894Z,10.53
2017-12-05T19:30:02.426Z,10.73
2017-12-05T19:31:46.198Z,10.55
2017-12-05T19:33:27.491Z,10.29
2017-12-05T19:35:08.093Z,10.40
2017-12-05T19:36:47.191Z,10.37
2017-12-05T19:38:28.089Z,10.69
2017-12-05T19:40:19.493Z,10.59
2017-12-05T19:42:18.901Z,10.70
2017-12-05T19:44:10.505Z,10.49
2017-12-05T19:46:09.291Z,10.64
2017-12-05T19:47:52.915Z,10.78
2017-12-05T19:49:33.999Z,10.75
2017-12-05T19:51:21.295Z,10.65
2017-12-05T19:53:07.014Z,10.88
2017-12-05T19:54:50.107Z,11.00
2017-12-05T19:56:31.584Z,11.09
2017-12-05T20:00:26.894Z,10.48
2017-12-05T20:02:10.333Z,10.08
2017-12-05T20:04:02.430Z,9.86
2017-12-05T20:05:45.299Z,10.20
2017-12-05T20:07:27.595Z,10.48
2017-12-05T20:09:10.897Z,10.31
2017-12-05T20:10:51.306Z,10.52
2017-12-05T20:12:31.285Z,10.22
2017-12-05T20:14:13.296Z,10.39
2017-12-05T20:15:53.718Z,10.13
2017-12-05T20:17:35.034Z,10.28
2017-12-05T20:19:15.592Z,10.42
2017-12-05T20:20:58.498Z,10.36
2017-12-05T20:22:39.815Z,10.38
2017-12-05T20:24:21.609Z,10.66
2017-12-05T20:26:00.920Z,10.85
2017-12-05T20:27:42.325Z,10.84
2017-12-05T20:29:22.333Z,10.87
2017-12-05T20:31:03.832Z,10.78
2017-12-05T20:32:46.750Z,10.50
2017-12-05T20:34:27.052Z,10.50
2017-12-05T20:36:06.736Z,10.80
2017-12-05T20:37:49.449Z,10.82
2017-12-05T20:39:27.471Z,10.96
2017-12-05T20:41:16.948Z,11.03
2017-12-05T20:42:57.848Z,10.96
2017-12-05T20:44:37.771Z,11.09
2017-12-05T20:46:24.057Z,11.38
2017-12-05T20:48:06.554Z,11.30
2017-12-05T20:49:47.773Z,10.74
2017-12-05T20:51:30.058Z,10.66
2017-12-05T20:53:09.766Z,10.90
2017-12-05T20:56:46.167Z,10.60
2017-12-05T20:58:24.755Z,11.00
2017-12-05T21:00:03.660Z,11.12
2017-12-05T21:01:43.751Z,11.04
2017-12-05T21:03:22.646Z,10.66
2017-12-05T21:05:00.852Z,10.40
2017-12-05T21:06:44.999Z,10.42
2017-12-05T21:08:23.950Z,10.25
2017-12-05T21:10:04.050Z,10.07
2017-12-05T21:11:44.347Z,10.18
2017-12-05T21:13:25.153Z,10.25
2017-12-05T21:15:10.650Z,10.61
2017-12-05T21:16:54.099Z,10.94
2017-12-05T21:18:37.558Z,10.66
2017-12-05T21:20:17.881Z,10.65
2017-12-05T21:21:58.557Z,10.98
2017-12-05T21:23:37.177Z,10.48
2017-12-05T21:25:16.654Z,10.30
2017-12-05T21:26:58.248Z,10.50
2017-12-05T21:28:39.269Z,10.24
2017-12-05T21:30:20.159Z,10.28
2017-12-05T21:32:02.858Z,10.57
2017-12-05T21:33:44.344Z,10.82
2017-12-05T21:35:26.082Z,10.62
2017-12-05T21:37:12.898Z,10.40
2017-12-05T21:38:59.173Z,10.34
2017-12-05T21:40:36.985Z,10.63
2017-12-05T21:42:17.829Z,10.61
2017-12-05T21:43:57.778Z,10.51
2017-12-05T21:45:38.691Z,10.37
2017-12-05T21:47:24.112Z,10.62
2017-12-05T21:49:05.688Z,10.96
2017-12-05T21:50:56.768Z,10.95
2017-12-05T21:52:40.751Z,10.87
2017-12-05T21:54:25.999Z,11.11
2017-12-05T21:56:08.912Z,11.12
2017-12-05T21:57:52.912Z,11.08
2017-12-05T21:59:31.998Z,11.17
2017-12-05T22:01:09.141Z,11.17
2017-12-05T22:02:53.401Z,11.21
2017-12-05T22:06:26.734Z,11.49
2017-12-05T22:08:08.990Z,11.60
2017-12-05T22:09:49.264Z,11.73
2017-12-05T22:11:31.787Z,11.75
2017-12-05T22:13:16.866Z,11.92
2017-12-05T22:14:58.053Z,11.65
2017-12-05T22:16:38.963Z,11.11
2017-12-05T22:18:25.171Z,10.96
2017-12-05T22:20:05.368Z,11.18
2017-12-05T22:21:44.299Z,11.19
2017-12-05T22:23:21.791Z,11.21
2017-12-05T22:24:59.107Z,10.84
2017-12-05T22:26:38.207Z,10.95
2017-12-05T22:28:17.056Z,10.80
2017-12-05T22:29:55.326Z,10.82
2017-12-05T22:31:35.541Z,10.61
2017-12-05T22:33:25.088Z,10.82
2017-12-05T22:35:09.842Z,10.99
2017-12-05T22:36:51.643Z,10.74
2017-12-05T22:38:33.792Z,10.79
2017-12-05T22:40:14.916Z,10.79
2017-12-05T22:41:54.158Z,11.07
2017-12-05T22:43:35.279Z,11.24
2017-12-05T22:45:21.142Z,11.46
2017-12-05T22:47:06.644Z,11.47
2017-12-05T22:49:05.710Z,11.33
2017-12-05T22:51:08.590Z,10.92
2017-12-05T22:52:58.645Z,10.56
2017-12-05T22:54:47.841Z,10.61